sensor_id;sensor_type;location;lat;lon;timestamp;P1;durP1;ratioP1;P2;durP2;ratioP2
28551;SDS011;15752;49.560;8.708;2023-03-14T00:01:10;0.73;;;0.67;;
28551;SDS011;15752;49.560;8.708;2023-03-14T00:03:43;1.97;;;0.60;;
28551;SDS011;15752;49.560;8.708;2023-03-14T00:06:11;1.23;;;0.50;;
28551;SDS011;15752;49.560;8.708;2023-03-14T00:08:41;0.80;;;0.50;;
28551;SDS011;15752;49.560;8.708;2023-03-14T00:11:11;1.03;;;0.63;;
28551;SDS011;15752;49.560;8.708;2023-03-14T00:13:42;0.73;;;0.50;;
28551;SDS011;15752;49.560;8.708;2023-03-14T00:16:11;0.70;;;0.53;;
28551;SDS011;15752;49.560;8.708;2023-03-14T00:18:40;0.60;;;0.50;;
28551;SDS011;15752;49.560;8.708;2023-03-14T00:21:10;1.77;;;0.57;;
28551;SDS011;15752;49.560;8.708;2023-03-14T00:23:39;1.93;;;0.50;;
28551;SDS011;15752;49.560;8.708;2023-03-14T00:26:10;0.70;;;0.60;;
28551;SDS011;15752;49.560;8.708;2023-03-14T00:28:41;1.90;;;0.50;;
28551;SDS011;15752;49.560;8.708;2023-03-14T00:31:11;0.87;;;0.63;;
28551;SDS011;15752;49.560;8.708;2023-03-14T00:33:41;0.97;;;0.60;;
28551;SDS011;15752;49.560;8.708;2023-03-14T00:36:13;1.50;;;0.63;;
28551;SDS011;15752;49.560;8.708;2023-03-14T00:38:44;0.47;;;0.40;;
28551;SDS011;15752;49.560;8.708;2023-03-14T00:41:15;1.03;;;0.60;;
28551;SDS011;15752;49.560;8.708;2023-03-14T00:43:46;1.07;;;0.60;;
28551;SDS011;15752;49.560;8.708;2023-03-14T00:46:14;0.53;;;0.50;;
28551;SDS011;15752;49.560;8.708;2023-03-14T00:48:44;1.30;;;0.50;;
28551;SDS011;15752;49.560;8.708;2023-03-14T00:51:14;1.60;;;0.60;;
28551;SDS011;15752;49.560;8.708;2023-03-14T00:53:43;1.83;;;0.77;;
28551;SDS011;15752;49.560;8.708;2023-03-14T00:56:12;1.13;;;0.80;;
28551;SDS011;15752;49.560;8.708;2023-03-14T00:58:41;0.70;;;0.70;;
28551;SDS011;15752;49.560;8.708;2023-03-14T01:01:10;1.17;;;0.60;;
28551;SDS011;15752;49.560;8.708;2023-03-14T01:03:42;1.20;;;0.63;;
28551;SDS011;15752;49.560;8.708;2023-03-14T01:06:11;2.80;;;0.80;;
28551;SDS011;15752;49.560;8.708;2023-03-14T01:08:43;1.13;;;0.70;;
28551;SDS011;15752;49.560;8.708;2023-03-14T01:11:13;0.60;;;0.60;;
28551;SDS011;15752;49.560;8.708;2023-03-14T01:13:44;1.17;;;0.50;;
28551;SDS011;15752;49.560;8.708;2023-03-14T01:16:13;0.70;;;0.50;;
28551;SDS011;15752;49.560;8.708;2023-03-14T01:18:43;1.50;;;0.60;;
28551;SDS011;15752;49.560;8.708;2023-03-14T01:21:14;0.80;;;0.67;;
28551;SDS011;15752;49.560;8.708;2023-03-14T01:23:45;0.87;;;0.50;;
28551;SDS011;15752;49.560;8.708;2023-03-14T01:26:16;1.47;;;0.50;;
28551;SDS011;15752;49.560;8.708;2023-03-14T01:28:47;0.53;;;0.33;;
28551;SDS011;15752;49.560;8.708;2023-03-14T01:31:18;2.03;;;0.50;;
28551;SDS011;15752;49.560;8.708;2023-03-14T01:33:46;0.77;;;0.50;;
28551;SDS011;15752;49.560;8.708;2023-03-14T01:36:31;0.63;;;0.50;;
28551;SDS011;15752;49.560;8.708;2023-03-14T01:39:00;0.40;;;0.40;;
28551;SDS011;15752;49.560;8.708;2023-03-14T01:41:29;0.90;;;0.50;;
28551;SDS011;15752;49.560;8.708;2023-03-14T01:43:59;1.67;;;0.70;;
28551;SDS011;15752;49.560;8.708;2023-03-14T01:46:32;0.57;;;0.50;;
28551;SDS011;15752;49.560;8.708;2023-03-14T01:49:11;2.33;;;0.50;;
28551;SDS011;15752;49.560;8.708;2023-03-14T01:51:56;0.90;;;0.50;;
28551;SDS011;15752;49.560;8.708;2023-03-14T01:54:28;0.63;;;0.60;;
28551;SDS011;15752;49.560;8.708;2023-03-14T01:57:03;1.90;;;0.77;;
28551;SDS011;15752;49.560;8.708;2023-03-14T01:59:38;0.63;;;0.47;;
28551;SDS011;15752;49.560;8.708;2023-03-14T02:02:12;2.57;;;0.77;;
28551;SDS011;15752;49.560;8.708;2023-03-14T02:04:43;0.70;;;0.53;;
28551;SDS011;15752;49.560;8.708;2023-03-14T02:07:16;0.80;;;0.60;;
28551;SDS011;15752;49.560;8.708;2023-03-14T02:10:06;1.17;;;0.67;;
28551;SDS011;15752;49.560;8.708;2023-03-14T02:12:35;2.20;;;0.77;;
28551;SDS011;15752;49.560;8.708;2023-03-14T02:15:18;1.03;;;0.80;;
28551;SDS011;15752;49.560;8.708;2023-03-14T02:18:04;1.10;;;0.60;;
28551;SDS011;15752;49.560;8.708;2023-03-14T02:21:00;1.40;;;0.80;;
28551;SDS011;15752;49.560;8.708;2023-03-14T02:23:35;1.60;;;0.70;;
28551;SDS011;15752;49.560;8.708;2023-03-14T02:26:10;1.10;;;0.57;;
28551;SDS011;15752;49.560;8.708;2023-03-14T02:28:44;2.60;;;0.80;;
28551;SDS011;15752;49.560;8.708;2023-03-14T02:31:13;1.30;;;0.73;;
28551;SDS011;15752;49.560;8.708;2023-03-14T02:33:42;1.63;;;0.77;;
28551;SDS011;15752;49.560;8.708;2023-03-14T02:36:11;0.73;;;0.70;;
28551;SDS011;15752;49.560;8.708;2023-03-14T02:38:44;1.33;;;0.80;;
28551;SDS011;15752;49.560;8.708;2023-03-14T02:41:20;1.93;;;0.70;;
28551;SDS011;15752;49.560;8.708;2023-03-14T02:43:59;1.60;;;0.70;;
28551;SDS011;15752;49.560;8.708;2023-03-14T02:46:27;2.10;;;0.50;;
28551;SDS011;15752;49.560;8.708;2023-03-14T02:48:57;2.23;;;0.57;;
28551;SDS011;15752;49.560;8.708;2023-03-14T02:51:30;0.70;;;0.60;;
28551;SDS011;15752;49.560;8.708;2023-03-14T02:54:05;3.20;;;0.50;;
28551;SDS011;15752;49.560;8.708;2023-03-14T02:56:34;4.67;;;0.90;;
28551;SDS011;15752;49.560;8.708;2023-03-14T02:59:05;1.10;;;0.70;;
28551;SDS011;15752;49.560;8.708;2023-03-14T03:01:41;3.80;;;0.80;;
28551;SDS011;15752;49.560;8.708;2023-03-14T03:04:09;1.83;;;0.80;;
28551;SDS011;15752;49.560;8.708;2023-03-14T03:06:38;2.33;;;0.60;;
28551;SDS011;15752;49.560;8.708;2023-03-14T03:09:06;1.93;;;0.60;;
28551;SDS011;15752;49.560;8.708;2023-03-14T03:11:35;1.40;;;0.60;;
28551;SDS011;15752;49.560;8.708;2023-03-14T03:14:06;1.67;;;0.90;;
28551;SDS011;15752;49.560;8.708;2023-03-14T03:16:34;1.73;;;0.77;;
28551;SDS011;15752;49.560;8.708;2023-03-14T03:19:03;2.60;;;0.70;;
28551;SDS011;15752;49.560;8.708;2023-03-14T03:21:31;2.20;;;0.70;;
28551;SDS011;15752;49.560;8.708;2023-03-14T03:24:00;2.60;;;0.83;;
28551;SDS011;15752;49.560;8.708;2023-03-14T03:26:28;1.50;;;0.80;;
28551;SDS011;15752;49.560;8.708;2023-03-14T03:28:56;2.40;;;0.83;;
28551;SDS011;15752;49.560;8.708;2023-03-14T03:31:27;1.73;;;0.70;;
28551;SDS011;15752;49.560;8.708;2023-03-14T03:33:56;1.87;;;0.80;;
28551;SDS011;15752;49.560;8.708;2023-03-14T03:36:25;1.27;;;0.70;;
28551;SDS011;15752;49.560;8.708;2023-03-14T03:38:57;1.83;;;0.53;;
28551;SDS011;15752;49.560;8.708;2023-03-14T03:41:26;2.33;;;0.50;;
28551;SDS011;15752;49.560;8.708;2023-03-14T03:43:55;2.27;;;0.87;;
28551;SDS011;15752;49.560;8.708;2023-03-14T03:46:24;1.33;;;0.67;;
28551;SDS011;15752;49.560;8.708;2023-03-14T03:48:54;1.40;;;0.73;;
28551;SDS011;15752;49.560;8.708;2023-03-14T03:51:25;3.00;;;0.80;;
28551;SDS011;15752;49.560;8.708;2023-03-14T03:53:55;1.33;;;0.80;;
28551;SDS011;15752;49.560;8.708;2023-03-14T03:56:28;1.30;;;0.80;;
28551;SDS011;15752;49.560;8.708;2023-03-14T03:58:58;1.17;;;0.60;;
28551;SDS011;15752;49.560;8.708;2023-03-14T04:01:28;1.47;;;0.50;;
28551;SDS011;15752;49.560;8.708;2023-03-14T04:03:58;2.73;;;0.83;;
28551;SDS011;15752;49.560;8.708;2023-03-14T04:06:27;1.30;;;0.80;;
28551;SDS011;15752;49.560;8.708;2023-03-14T04:08:58;2.00;;;0.67;;
28551;SDS011;15752;49.560;8.708;2023-03-14T04:11:48;2.53;;;0.60;;
28551;SDS011;15752;49.560;8.708;2023-03-14T04:14:19;1.03;;;0.50;;
28551;SDS011;15752;49.560;8.708;2023-03-14T04:16:59;2.40;;;0.93;;
28551;SDS011;15752;49.560;8.708;2023-03-14T04:19:29;2.03;;;0.67;;
28551;SDS011;15752;49.560;8.708;2023-03-14T04:21:57;2.40;;;0.63;;
28551;SDS011;15752;49.560;8.708;2023-03-14T04:24:31;0.77;;;0.70;;
28551;SDS011;15752;49.560;8.708;2023-03-14T04:27:00;1.40;;;0.83;;
28551;SDS011;15752;49.560;8.708;2023-03-14T04:29:29;3.30;;;0.90;;
28551;SDS011;15752;49.560;8.708;2023-03-14T04:32:00;2.80;;;0.60;;
28551;SDS011;15752;49.560;8.708;2023-03-14T04:34:28;1.10;;;0.70;;
28551;SDS011;15752;49.560;8.708;2023-03-14T04:36:57;2.07;;;0.70;;
28551;SDS011;15752;49.560;8.708;2023-03-14T04:39:34;2.27;;;1.20;;
28551;SDS011;15752;49.560;8.708;2023-03-14T04:42:16;1.57;;;1.03;;
28551;SDS011;15752;49.560;8.708;2023-03-14T04:44:45;3.17;;;1.43;;
28551;SDS011;15752;49.560;8.708;2023-03-14T04:47:19;5.57;;;1.50;;
28551;SDS011;15752;49.560;8.708;2023-03-14T04:49:49;2.93;;;1.20;;
28551;SDS011;15752;49.560;8.708;2023-03-14T04:52:18;1.30;;;0.70;;
28551;SDS011;15752;49.560;8.708;2023-03-14T04:54:46;2.90;;;0.80;;
28551;SDS011;15752;49.560;8.708;2023-03-14T04:57:16;1.17;;;0.50;;
28551;SDS011;15752;49.560;8.708;2023-03-14T04:59:46;2.13;;;0.77;;
28551;SDS011;15752;49.560;8.708;2023-03-14T05:02:42;1.87;;;0.60;;
28551;SDS011;15752;49.560;8.708;2023-03-14T05:05:31;0.73;;;0.47;;
28551;SDS011;15752;49.560;8.708;2023-03-14T05:08:20;2.03;;;0.70;;
28551;SDS011;15752;49.560;8.708;2023-03-14T05:11:02;2.27;;;0.50;;
28551;SDS011;15752;49.560;8.708;2023-03-14T05:13:50;1.13;;;0.60;;
28551;SDS011;15752;49.560;8.708;2023-03-14T05:16:32;1.40;;;0.60;;
28551;SDS011;15752;49.560;8.708;2023-03-14T05:19:21;1.60;;;0.60;;
28551;SDS011;15752;49.560;8.708;2023-03-14T05:22:08;0.97;;;0.60;;
28551;SDS011;15752;49.560;8.708;2023-03-14T05:25:00;2.67;;;0.67;;
28551;SDS011;15752;49.560;8.708;2023-03-14T05:28:09;4.50;;;0.90;;
28551;SDS011;15752;49.560;8.708;2023-03-14T05:30:54;4.93;;;1.10;;
28551;SDS011;15752;49.560;8.708;2023-03-14T05:33:41;2.53;;;0.80;;
28551;SDS011;15752;49.560;8.708;2023-03-14T05:36:35;1.23;;;0.70;;
28551;SDS011;15752;49.560;8.708;2023-03-14T05:39:29;0.83;;;0.70;;
28551;SDS011;15752;49.560;8.708;2023-03-14T05:42:09;2.00;;;0.60;;
28551;SDS011;15752;49.560;8.708;2023-03-14T05:45:06;2.07;;;0.70;;
28551;SDS011;15752;49.560;8.708;2023-03-14T05:48:05;3.03;;;0.77;;
28551;SDS011;15752;49.560;8.708;2023-03-14T05:50:54;1.53;;;0.80;;
28551;SDS011;15752;49.560;8.708;2023-03-14T05:53:37;4.80;;;0.83;;
28551;SDS011;15752;49.560;8.708;2023-03-14T05:56:23;1.73;;;1.00;;
28551;SDS011;15752;49.560;8.708;2023-03-14T05:59:06;1.37;;;0.90;;
28551;SDS011;15752;49.560;8.708;2023-03-14T06:02:05;2.80;;;0.70;;
28551;SDS011;15752;49.560;8.708;2023-03-14T06:04:45;2.33;;;0.60;;
28551;SDS011;15752;49.560;8.708;2023-03-14T06:07:14;1.90;;;0.60;;
28551;SDS011;15752;49.560;8.708;2023-03-14T06:09:44;4.07;;;1.10;;
28551;SDS011;15752;49.560;8.708;2023-03-14T06:12:16;1.87;;;0.80;;
28551;SDS011;15752;49.560;8.708;2023-03-14T06:14:45;2.60;;;1.23;;
28551;SDS011;15752;49.560;8.708;2023-03-14T06:17:16;1.50;;;0.90;;
28551;SDS011;15752;49.560;8.708;2023-03-14T06:19:54;1.23;;;0.60;;
28551;SDS011;15752;49.560;8.708;2023-03-14T06:22:22;2.87;;;1.00;;
28551;SDS011;15752;49.560;8.708;2023-03-14T06:24:54;2.63;;;0.60;;
28551;SDS011;15752;49.560;8.708;2023-03-14T06:27:24;1.90;;;0.70;;
28551;SDS011;15752;49.560;8.708;2023-03-14T06:29:55;2.10;;;0.60;;
28551;SDS011;15752;49.560;8.708;2023-03-14T06:32:25;3.40;;;0.60;;
28551;SDS011;15752;49.560;8.708;2023-03-14T06:34:57;1.03;;;0.60;;
28551;SDS011;15752;49.560;8.708;2023-03-14T06:37:29;1.13;;;0.50;;
28551;SDS011;15752;49.560;8.708;2023-03-14T06:39:59;2.10;;;0.70;;
28551;SDS011;15752;49.560;8.708;2023-03-14T06:43:03;2.70;;;0.67;;
28551;SDS011;15752;49.560;8.708;2023-03-14T06:45:33;2.07;;;0.80;;
28551;SDS011;15752;49.560;8.708;2023-03-14T06:48:02;1.73;;;0.50;;
28551;SDS011;15752;49.560;8.708;2023-03-14T06:50:48;2.77;;;0.60;;
28551;SDS011;15752;49.560;8.708;2023-03-14T06:53:21;2.13;;;0.60;;
28551;SDS011;15752;49.560;8.708;2023-03-14T06:55:51;1.70;;;0.70;;
28551;SDS011;15752;49.560;8.708;2023-03-14T06:58:20;1.60;;;0.50;;
28551;SDS011;15752;49.560;8.708;2023-03-14T07:00:49;3.67;;;1.67;;
28551;SDS011;15752;49.560;8.708;2023-03-14T07:03:22;1.53;;;0.60;;
28551;SDS011;15752;49.560;8.708;2023-03-14T07:05:53;2.40;;;1.07;;
28551;SDS011;15752;49.560;8.708;2023-03-14T07:08:22;1.53;;;0.63;;
28551;SDS011;15752;49.560;8.708;2023-03-14T07:10:52;2.30;;;0.73;;
28551;SDS011;15752;49.560;8.708;2023-03-14T07:13:24;1.93;;;0.70;;
28551;SDS011;15752;49.560;8.708;2023-03-14T07:15:58;1.17;;;0.63;;
28551;SDS011;15752;49.560;8.708;2023-03-14T07:18:27;1.77;;;0.60;;
28551;SDS011;15752;49.560;8.708;2023-03-14T07:20:55;1.47;;;0.60;;
28551;SDS011;15752;49.560;8.708;2023-03-14T07:23:24;1.60;;;0.40;;
28551;SDS011;15752;49.560;8.708;2023-03-14T07:25:54;1.67;;;0.50;;
28551;SDS011;15752;49.560;8.708;2023-03-14T07:28:24;1.63;;;0.70;;
28551;SDS011;15752;49.560;8.708;2023-03-14T07:31:02;1.60;;;0.70;;
28551;SDS011;15752;49.560;8.708;2023-03-14T07:33:31;2.13;;;0.90;;
28551;SDS011;15752;49.560;8.708;2023-03-14T07:36:01;2.13;;;0.80;;
28551;SDS011;15752;49.560;8.708;2023-03-14T07:38:30;2.57;;;0.80;;
28551;SDS011;15752;49.560;8.708;2023-03-14T07:41:19;3.90;;;1.37;;
28551;SDS011;15752;49.560;8.708;2023-03-14T07:44:06;1.83;;;0.73;;
28551;SDS011;15752;49.560;8.708;2023-03-14T07:46:34;4.00;;;0.70;;
28551;SDS011;15752;49.560;8.708;2023-03-14T07:49:03;2.77;;;0.70;;
28551;SDS011;15752;49.560;8.708;2023-03-14T07:51:31;1.87;;;0.53;;
28551;SDS011;15752;49.560;8.708;2023-03-14T07:54:00;2.03;;;0.70;;
28551;SDS011;15752;49.560;8.708;2023-03-14T07:56:29;1.50;;;0.80;;
28551;SDS011;15752;49.560;8.708;2023-03-14T07:58:58;1.97;;;0.77;;
28551;SDS011;15752;49.560;8.708;2023-03-14T08:01:26;2.33;;;0.90;;
28551;SDS011;15752;49.560;8.708;2023-03-14T08:03:55;2.53;;;0.73;;
28551;SDS011;15752;49.560;8.708;2023-03-14T08:06:23;2.70;;;1.00;;
28551;SDS011;15752;49.560;8.708;2023-03-14T08:08:51;4.37;;;0.90;;
28551;SDS011;15752;49.560;8.708;2023-03-14T08:11:20;1.67;;;0.60;;
28551;SDS011;15752;49.560;8.708;2023-03-14T08:13:50;2.07;;;0.60;;
28551;SDS011;15752;49.560;8.708;2023-03-14T08:16:18;3.63;;;0.60;;
28551;SDS011;15752;49.560;8.708;2023-03-14T08:18:47;1.37;;;0.73;;
28551;SDS011;15752;49.560;8.708;2023-03-14T08:21:16;1.47;;;0.50;;
28551;SDS011;15752;49.560;8.708;2023-03-14T08:23:44;2.07;;;0.60;;
28551;SDS011;15752;49.560;8.708;2023-03-14T08:26:13;0.70;;;0.47;;
28551;SDS011;15752;49.560;8.708;2023-03-14T08:28:41;1.87;;;0.40;;
28551;SDS011;15752;49.560;8.708;2023-03-14T08:31:11;1.67;;;0.93;;
28551;SDS011;15752;49.560;8.708;2023-03-14T08:33:41;2.87;;;0.50;;
28551;SDS011;15752;49.560;8.708;2023-03-14T08:36:09;2.37;;;0.63;;
28551;SDS011;15752;49.560;8.708;2023-03-14T08:38:38;1.77;;;0.50;;
28551;SDS011;15752;49.560;8.708;2023-03-14T08:41:09;0.57;;;0.37;;
28551;SDS011;15752;49.560;8.708;2023-03-14T08:43:38;2.03;;;0.50;;
28551;SDS011;15752;49.560;8.708;2023-03-14T08:46:06;1.63;;;0.73;;
28551;SDS011;15752;49.560;8.708;2023-03-14T08:48:36;0.83;;;0.47;;
28551;SDS011;15752;49.560;8.708;2023-03-14T08:51:05;1.07;;;0.60;;
28551;SDS011;15752;49.560;8.708;2023-03-14T08:53:35;1.63;;;0.50;;
28551;SDS011;15752;49.560;8.708;2023-03-14T08:56:04;0.97;;;0.67;;
28551;SDS011;15752;49.560;8.708;2023-03-14T08:58:36;1.07;;;0.60;;
28551;SDS011;15752;49.560;8.708;2023-03-14T09:01:05;4.20;;;1.00;;
28551;SDS011;15752;49.560;8.708;2023-03-14T09:03:37;1.57;;;0.70;;
28551;SDS011;15752;49.560;8.708;2023-03-14T09:06:06;1.23;;;0.50;;
28551;SDS011;15752;49.560;8.708;2023-03-14T09:08:37;0.47;;;0.40;;
28551;SDS011;15752;49.560;8.708;2023-03-14T09:11:06;1.70;;;0.90;;
28551;SDS011;15752;49.560;8.708;2023-03-14T09:13:36;2.47;;;0.60;;
28551;SDS011;15752;49.560;8.708;2023-03-14T09:16:05;0.60;;;0.30;;
28551;SDS011;15752;49.560;8.708;2023-03-14T09:18:35;1.57;;;0.50;;
28551;SDS011;15752;49.560;8.708;2023-03-14T09:21:04;0.63;;;0.40;;
28551;SDS011;15752;49.560;8.708;2023-03-14T09:23:34;0.77;;;0.30;;
28551;SDS011;15752;49.560;8.708;2023-03-14T09:26:02;0.60;;;0.40;;
28551;SDS011;15752;49.560;8.708;2023-03-14T09:28:31;0.40;;;0.20;;
28551;SDS011;15752;49.560;8.708;2023-03-14T09:31:04;0.90;;;0.37;;
28551;SDS011;15752;49.560;8.708;2023-03-14T09:33:34;2.83;;;0.47;;
28551;SDS011;15752;49.560;8.708;2023-03-14T09:36:05;0.30;;;0.30;;
28551;SDS011;15752;49.560;8.708;2023-03-14T09:38:34;1.00;;;0.40;;
28551;SDS011;15752;49.560;8.708;2023-03-14T09:41:03;0.70;;;0.40;;
28551;SDS011;15752;49.560;8.708;2023-03-14T09:43:43;1.33;;;0.50;;
28551;SDS011;15752;49.560;8.708;2023-03-14T09:46:17;1.33;;;0.40;;
28551;SDS011;15752;49.560;8.708;2023-03-14T09:48:47;2.43;;;0.50;;
28551;SDS011;15752;49.560;8.708;2023-03-14T09:51:16;0.40;;;0.30;;
28551;SDS011;15752;49.560;8.708;2023-03-14T09:53:48;2.10;;;0.40;;
28551;SDS011;15752;49.560;8.708;2023-03-14T09:56:18;0.30;;;0.30;;
28551;SDS011;15752;49.560;8.708;2023-03-14T09:58:51;0.27;;;0.20;;
28551;SDS011;15752;49.560;8.708;2023-03-14T10:01:25;1.60;;;0.57;;
28551;SDS011;15752;49.560;8.708;2023-03-14T10:04:00;0.47;;;0.33;;
28551;SDS011;15752;49.560;8.708;2023-03-14T10:06:34;0.60;;;0.30;;
28551;SDS011;15752;49.560;8.708;2023-03-14T10:09:02;1.03;;;0.40;;
28551;SDS011;15752;49.560;8.708;2023-03-14T10:11:32;1.37;;;0.30;;
28551;SDS011;15752;49.560;8.708;2023-03-14T10:14:04;0.90;;;0.50;;
28551;SDS011;15752;49.560;8.708;2023-03-14T10:16:35;1.33;;;0.50;;
28551;SDS011;15752;49.560;8.708;2023-03-14T10:19:11;1.70;;;0.50;;
28551;SDS011;15752;49.560;8.708;2023-03-14T10:21:41;0.40;;;0.40;;
28551;SDS011;15752;49.560;8.708;2023-03-14T10:24:18;0.57;;;0.30;;
28551;SDS011;15752;49.560;8.708;2023-03-14T10:26:49;1.30;;;0.50;;
28551;SDS011;15752;49.560;8.708;2023-03-14T10:29:21;0.57;;;0.30;;
28551;SDS011;15752;49.560;8.708;2023-03-14T10:31:51;0.37;;;0.30;;
28551;SDS011;15752;49.560;8.708;2023-03-14T10:34:24;0.93;;;0.30;;
28551;SDS011;15752;49.560;8.708;2023-03-14T10:36:55;1.07;;;0.30;;
28551;SDS011;15752;49.560;8.708;2023-03-14T10:39:34;2.43;;;0.33;;
28551;SDS011;15752;49.560;8.708;2023-03-14T10:42:14;0.70;;;0.40;;
28551;SDS011;15752;49.560;8.708;2023-03-14T10:44:48;1.43;;;0.30;;
28551;SDS011;15752;49.560;8.708;2023-03-14T10:47:23;0.40;;;0.33;;
28551;SDS011;15752;49.560;8.708;2023-03-14T10:49:56;0.40;;;0.40;;
28551;SDS011;15752;49.560;8.708;2023-03-14T10:52:25;0.73;;;0.30;;
28551;SDS011;15752;49.560;8.708;2023-03-14T10:55:09;0.30;;;0.20;;
28551;SDS011;15752;49.560;8.708;2023-03-14T10:57:39;0.53;;;0.30;;
28551;SDS011;15752;49.560;8.708;2023-03-14T11:00:11;0.20;;;0.20;;
28551;SDS011;15752;49.560;8.708;2023-03-14T11:02:57;0.60;;;0.40;;
28551;SDS011;15752;49.560;8.708;2023-03-14T11:05:38;0.40;;;0.40;;
28551;SDS011;15752;49.560;8.708;2023-03-14T11:08:12;0.83;;;0.40;;
28551;SDS011;15752;49.560;8.708;2023-03-14T11:10:50;0.50;;;0.30;;
28551;SDS011;15752;49.560;8.708;2023-03-14T11:13:22;0.73;;;0.40;;
28551;SDS011;15752;49.560;8.708;2023-03-14T11:15:57;0.73;;;0.30;;
28551;SDS011;15752;49.560;8.708;2023-03-14T11:18:43;0.40;;;0.30;;
28551;SDS011;15752;49.560;8.708;2023-03-14T11:21:51;0.60;;;0.40;;
28551;SDS011;15752;49.560;8.708;2023-03-14T11:24:32;0.30;;;0.30;;
28551;SDS011;15752;49.560;8.708;2023-03-14T11:27:27;0.77;;;0.40;;
28551;SDS011;15752;49.560;8.708;2023-03-14T11:30:16;1.07;;;0.37;;
28551;SDS011;15752;49.560;8.708;2023-03-14T11:32:50;0.30;;;0.30;;
28551;SDS011;15752;49.560;8.708;2023-03-14T11:35:24;0.30;;;0.30;;
28551;SDS011;15752;49.560;8.708;2023-03-14T11:38:03;2.47;;;0.50;;
28551;SDS011;15752;49.560;8.708;2023-03-14T11:40:43;0.50;;;0.50;;
28551;SDS011;15752;49.560;8.708;2023-03-14T11:43:15;0.77;;;0.50;;
28551;SDS011;15752;49.560;8.708;2023-03-14T11:45:48;0.57;;;0.30;;
28551;SDS011;15752;49.560;8.708;2023-03-14T11:48:21;0.70;;;0.40;;
28551;SDS011;15752;49.560;8.708;2023-03-14T11:50:59;0.50;;;0.40;;
28551;SDS011;15752;49.560;8.708;2023-03-14T11:53:35;1.40;;;0.50;;
28551;SDS011;15752;49.560;8.708;2023-03-14T11:56:18;0.50;;;0.40;;
28551;SDS011;15752;49.560;8.708;2023-03-14T11:58:55;0.40;;;0.30;;
28551;SDS011;15752;49.560;8.708;2023-03-14T12:01:31;1.00;;;0.40;;
28551;SDS011;15752;49.560;8.708;2023-03-14T12:04:13;0.50;;;0.43;;
28551;SDS011;15752;49.560;8.708;2023-03-14T12:06:50;0.87;;;0.50;;
28551;SDS011;15752;49.560;8.708;2023-03-14T12:09:20;0.73;;;0.73;;
28551;SDS011;15752;49.560;8.708;2023-03-14T12:11:50;3.93;;;1.10;;
28551;SDS011;15752;49.560;8.708;2023-03-14T12:14:23;0.90;;;0.70;;
28551;SDS011;15752;49.560;8.708;2023-03-14T12:16:54;3.20;;;0.70;;
28551;SDS011;15752;49.560;8.708;2023-03-14T12:19:35;0.63;;;0.40;;
28551;SDS011;15752;49.560;8.708;2023-03-14T12:22:07;0.70;;;0.40;;
28551;SDS011;15752;49.560;8.708;2023-03-14T12:24:56;0.90;;;0.40;;
28551;SDS011;15752;49.560;8.708;2023-03-14T12:27:42;0.40;;;0.40;;
28551;SDS011;15752;49.560;8.708;2023-03-14T12:30:30;1.50;;;0.50;;
28551;SDS011;15752;49.560;8.708;2023-03-14T12:33:19;0.33;;;0.33;;
28551;SDS011;15752;49.560;8.708;2023-03-14T12:39:00;3.10;;;1.10;;
28551;SDS011;15752;49.560;8.708;2023-03-14T12:41:42;0.40;;;0.40;;
28551;SDS011;15752;49.560;8.708;2023-03-14T12:44:38;0.40;;;0.40;;
28551;SDS011;15752;49.560;8.708;2023-03-14T12:50:31;1.40;;;0.50;;
28551;SDS011;15752;49.560;8.708;2023-03-14T12:59:30;0.47;;;0.33;;
28551;SDS011;15752;49.560;8.708;2023-03-14T13:02:10;0.53;;;0.30;;
28551;SDS011;15752;49.560;8.708;2023-03-14T13:04:50;0.40;;;0.40;;
28551;SDS011;15752;49.560;8.708;2023-03-14T13:07:31;0.40;;;0.40;;
28551;SDS011;15752;49.560;8.708;2023-03-14T13:10:04;1.70;;;0.60;;
28551;SDS011;15752;49.560;8.708;2023-03-14T13:12:51;0.50;;;0.50;;
28551;SDS011;15752;49.560;8.708;2023-03-14T13:15:24;0.60;;;0.50;;
28551;SDS011;15752;49.560;8.708;2023-03-14T13:17:59;1.00;;;0.50;;
28551;SDS011;15752;49.560;8.708;2023-03-14T13:20:31;0.73;;;0.30;;
28551;SDS011;15752;49.560;8.708;2023-03-14T13:23:03;0.83;;;0.40;;
28551;SDS011;15752;49.560;8.708;2023-03-14T13:25:32;0.30;;;0.30;;
28551;SDS011;15752;49.560;8.708;2023-03-14T13:28:04;1.63;;;0.50;;
28551;SDS011;15752;49.560;8.708;2023-03-14T13:30:36;0.47;;;0.47;;
28551;SDS011;15752;49.560;8.708;2023-03-14T13:33:11;1.67;;;0.60;;
28551;SDS011;15752;49.560;8.708;2023-03-14T13:35:43;0.70;;;0.60;;
28551;SDS011;15752;49.560;8.708;2023-03-14T13:38:18;1.60;;;0.60;;
28551;SDS011;15752;49.560;8.708;2023-03-14T13:40:49;0.70;;;0.60;;
28551;SDS011;15752;49.560;8.708;2023-03-14T13:43:23;0.67;;;0.60;;
28551;SDS011;15752;49.560;8.708;2023-03-14T13:46:00;1.67;;;0.80;;
28551;SDS011;15752;49.560;8.708;2023-03-14T13:48:33;0.70;;;0.60;;
28551;SDS011;15752;49.560;8.708;2023-03-14T13:51:10;2.53;;;0.90;;
28551;SDS011;15752;49.560;8.708;2023-03-14T13:53:44;1.00;;;0.70;;
28551;SDS011;15752;49.560;8.708;2023-03-14T13:56:13;1.40;;;0.63;;
28551;SDS011;15752;49.560;8.708;2023-03-14T13:58:43;1.10;;;0.83;;
28551;SDS011;15752;49.560;8.708;2023-03-14T14:01:13;2.67;;;1.10;;
28551;SDS011;15752;49.560;8.708;2023-03-14T14:03:44;1.63;;;1.00;;
28551;SDS011;15752;49.560;8.708;2023-03-14T14:06:28;2.20;;;0.90;;
28551;SDS011;15752;49.560;8.708;2023-03-14T14:08:59;1.30;;;0.80;;
28551;SDS011;15752;49.560;8.708;2023-03-14T14:11:36;1.10;;;0.70;;
28551;SDS011;15752;49.560;8.708;2023-03-14T14:14:21;0.60;;;0.60;;
28551;SDS011;15752;49.560;8.708;2023-03-14T14:16:54;1.30;;;0.70;;
28551;SDS011;15752;49.560;8.708;2023-03-14T14:19:25;1.07;;;0.90;;
28551;SDS011;15752;49.560;8.708;2023-03-14T14:21:57;3.17;;;1.10;;
28551;SDS011;15752;49.560;8.708;2023-03-14T14:24:28;1.20;;;0.60;;
28551;SDS011;15752;49.560;8.708;2023-03-14T14:26:59;1.80;;;0.90;;
28551;SDS011;15752;49.560;8.708;2023-03-14T14:29:31;4.83;;;1.20;;
28551;SDS011;15752;49.560;8.708;2023-03-14T14:32:01;1.73;;;0.90;;
28551;SDS011;15752;49.560;8.708;2023-03-14T14:34:39;3.30;;;0.70;;
28551;SDS011;15752;49.560;8.708;2023-03-14T14:37:17;2.13;;;1.00;;
28551;SDS011;15752;49.560;8.708;2023-03-14T14:39:53;3.90;;;1.43;;
28551;SDS011;15752;49.560;8.708;2023-03-14T14:42:25;2.90;;;1.90;;
28551;SDS011;15752;49.560;8.708;2023-03-14T14:44:58;1.53;;;1.20;;
28551;SDS011;15752;49.560;8.708;2023-03-14T14:47:30;3.03;;;1.37;;
28551;SDS011;15752;49.560;8.708;2023-03-14T14:49:59;2.07;;;1.20;;
28551;SDS011;15752;49.560;8.708;2023-03-14T14:52:33;1.93;;;1.17;;
28551;SDS011;15752;49.560;8.708;2023-03-14T14:55:11;1.67;;;1.37;;
28551;SDS011;15752;49.560;8.708;2023-03-14T14:57:48;3.07;;;1.63;;
28551;SDS011;15752;49.560;8.708;2023-03-14T15:00:20;3.10;;;1.17;;
28551;SDS011;15752;49.560;8.708;2023-03-14T15:02:51;2.73;;;1.50;;
28551;SDS011;15752;49.560;8.708;2023-03-14T15:05:22;2.07;;;1.87;;
28551;SDS011;15752;49.560;8.708;2023-03-14T15:07:52;0.90;;;0.70;;
28551;SDS011;15752;49.560;8.708;2023-03-14T15:10:22;2.30;;;1.00;;
28551;SDS011;15752;49.560;8.708;2023-03-14T15:12:52;2.40;;;1.40;;
28551;SDS011;15752;49.560;8.708;2023-03-14T15:15:22;2.07;;;1.03;;
28551;SDS011;15752;49.560;8.708;2023-03-14T15:17:50;2.33;;;0.97;;
28551;SDS011;15752;49.560;8.708;2023-03-14T15:20:19;1.93;;;0.70;;
28551;SDS011;15752;49.560;8.708;2023-03-14T15:22:50;1.10;;;0.77;;
28551;SDS011;15752;49.560;8.708;2023-03-14T15:25:18;2.67;;;0.70;;
28551;SDS011;15752;49.560;8.708;2023-03-14T15:28:14;1.17;;;0.77;;
28551;SDS011;15752;49.560;8.708;2023-03-14T15:30:52;0.90;;;0.50;;
28551;SDS011;15752;49.560;8.708;2023-03-14T15:33:23;1.60;;;0.47;;
28551;SDS011;15752;49.560;8.708;2023-03-14T15:35:53;0.60;;;0.50;;
28551;SDS011;15752;49.560;8.708;2023-03-14T15:38:23;0.83;;;0.50;;
28551;SDS011;15752;49.560;8.708;2023-03-14T15:40:51;0.73;;;0.30;;